Time;durP1;ratioP1;P1;durP2;ratioP2;P2;SDS_P1;SDS_P2;PMS_P1;PMS_P2;Temp;Humidity;BMP_temperature;BMP_pressure;BME280_temperature;BME280_humidity;BME280_pressure;Samples;Min_cycle;Max_cycle;Signal;HPM_P1;HPM_P2
2022/01/04 00:00:28;;;;;;;10.80;5.77;;;9.20;99.90;;;;;;5047461;28;20226;-72
2022/01/04 00:02:57;;;;;;;9.90;5.63;;;9.10;99.90;;;;;;5020820;28;20614;-73
2022/01/04 00:05:25;;;;;;;13.37;5.90;;;9.10;99.90;;;;;;5044825;28;20223;-73
2022/01/04 00:07:50;;;;;;;10.70;7.20;;;9.10;99.90;;;;;;5062596;28;20700;-73
2022/01/04 00:10:26;;;;;;;15.90;6.20;;;9.10;99.90;;;;;;5044461;28;20642;-72
2022/01/04 00:15:42;;;;;;;11.67;6.90;;;9.20;99.90;;;;;;5046211;28;21012;-72
2022/01/04 00:18:09;;;;;;;11.23;5.93;;;9.20;99.90;;;;;;5021621;28;20665;-73
2022/01/04 00:20:35;;;;;;;10.23;5.83;;;9.20;99.90;;;;;;5028858;28;20744;-72
2022/01/04 00:23:00;;;;;;;10.17;6.00;;;9.20;99.90;;;;;;5030860;28;20614;-73
2022/01/04 00:25:26;;;;;;;12.07;5.70;;;9.20;99.90;;;;;;5047382;28;20199;-72
2022/01/04 00:27:52;;;;;;;10.40;6.30;;;9.20;99.90;;;;;;5058355;28;20216;-73
2022/01/04 00:30:24;;;;;;;14.90;7.03;;;9.10;99.90;;;;;;5044306;28;20235;-73
2022/01/04 00:32:49;;;;;;;13.23;7.20;;;9.10;99.90;;;;;;5027966;28;20623;-72
2022/01/04 00:35:15;;;;;;;12.30;6.70;;;9.20;99.90;;;;;;5020099;28;20669;-73
2022/01/04 00:37:40;;;;;;;14.83;6.97;;;9.20;99.90;;;;;;5047658;28;20776;-72
2022/01/04 00:40:09;;;;;;;9.07;6.90;;;9.10;99.90;;;;;;5027853;28;20311;-73
2022/01/04 00:42:37;;;;;;;10.90;7.07;;;9.10;99.90;;;;;;5046587;28;20722;-72
2022/01/04 00:45:03;;;;;;;10.33;7.10;;;9.10;99.90;;;;;;5043560;28;21193;-72
2022/01/04 00:50:21;;;;;;;11.10;6.50;;;9.10;99.90;;;;;;5045562;28;20638;-73
2022/01/04 00:52:48;;;;;;;12.83;6.93;;;9.10;99.90;;;;;;5028180;28;21247;-72
2022/01/04 00:55:14;;;;;;;14.67;7.60;;;9.10;99.90;;;;;;5014802;28;20646;-72
2022/01/04 00:57:42;;;;;;;11.67;6.43;;;9.10;99.90;;;;;;5028023;28;20665;-73
2022/01/04 01:00:10;;;;;;;9.40;7.10;;;9.10;99.90;;;;;;5028354;28;20215;-72
2022/01/04 01:02:36;;;;;;;8.70;6.87;;;9.10;99.90;;;;;;5044484;28;20982;-73
2022/01/04 01:05:04;;;;;;;10.70;6.70;;;9.10;99.90;;;;;;5058730;28;20625;-73
2022/01/04 01:07:34;;;;;;;15.17;7.60;;;9.10;99.90;;;;;;5047111;28;20212;-73
2022/01/04 01:12:48;;;;;;;11.90;7.97;;;9.10;99.90;;;;;;5040339;28;22414;-73
2022/01/04 01:15:13;;;;;;;11.20;7.67;;;9.00;99.90;;;;;;5045950;28;20650;-73
2022/01/04 01:17:39;;;;;;;14.30;8.20;;;9.00;99.90;;;;;;5044598;28;21027;-73
2022/01/04 01:20:07;;;;;;;11.57;7.80;;;9.10;99.90;;;;;;5046358;28;20296;-73
2022/01/04 01:22:34;;;;;;;15.00;7.63;;;9.00;99.90;;;;;;5044326;28;20267;-73
2022/01/04 01:24:59;;;;;;;15.97;7.47;;;9.00;99.90;;;;;;5046571;28;21228;-73
2022/01/04 01:27:28;;;;;;;13.43;8.00;;;9.00;99.90;;;;;;5029076;28;20657;-73
2022/01/04 01:29:56;;;;;;;16.30;8.10;;;9.00;99.90;;;;;;5027147;28;20630;-73
2022/01/04 01:32:22;;;;;;;11.10;7.20;;;9.10;99.90;;;;;;5016795;28;20184;-73
2022/01/04 01:34:51;;;;;;;11.77;7.40;;;9.00;99.90;;;;;;5044793;28;21064;-72
2022/01/04 01:37:16;;;;;;;11.83;7.63;;;9.00;99.90;;;;;;5046441;28;20311;-73
2022/01/04 01:39:44;;;;;;;9.97;7.40;;;9.00;99.90;;;;;;5044522;28;20633;-73
2022/01/04 01:42:10;;;;;;;12.70;7.33;;;9.00;99.90;;;;;;5035730;28;20195;-73
2022/01/04 01:44:38;;;;;;;14.43;7.80;;;9.00;99.90;;;;;;5027595;28;20603;-73
2022/01/04 01:47:04;;;;;;;10.47;8.10;;;9.10;99.90;;;;;;5046549;28;20210;-73
2022/01/04 01:49:30;;;;;;;12.50;7.70;;;9.10;99.90;;;;;;5025766;28;21228;-73
2022/01/04 01:51:57;;;;;;;13.50;7.83;;;9.20;99.90;;;;;;5043106;28;20691;-73
2022/01/04 01:54:23;;;;;;;12.40;8.07;;;9.20;99.90;;;;;;5028225;28;20610;-73
2022/01/04 01:56:48;;;;;;;15.50;8.17;;;9.20;99.90;;;;;;5045925;28;20770;-73
2022/01/04 01:59:19;;;;;;;9.53;7.10;;;9.20;99.90;;;;;;5025370;28;20637;-73
2022/01/04 02:01:47;;;;;;;11.90;7.90;;;9.20;99.90;;;;;;5034081;28;20264;-73
2022/01/04 02:04:15;;;;;;;13.13;6.93;;;9.20;99.90;;;;;;5026441;28;20609;-73
2022/01/04 02:06:41;;;;;;;11.77;6.87;;;9.20;99.90;;;;;;5045646;28;20611;-73
2022/01/04 02:09:09;;;;;;;8.83;6.60;;;9.20;99.90;;;;;;5026405;28;20704;-73
2022/01/04 02:11:36;;;;;;;18.13;8.40;;;9.20;99.90;;;;;;5044949;28;20229;-73
2022/01/04 02:14:03;;;;;;;13.23;6.77;;;9.20;99.90;;;;;;5045835;28;20996;-73
2022/01/04 02:16:31;;;;;;;7.97;6.77;;;9.20;99.90;;;;;;5026857;28;20805;-74
2022/01/04 02:19:07;;;;;;;13.00;7.90;;;9.20;99.90;;;;;;5042205;28;20626;-73
2022/01/04 02:21:37;;;;;;;10.97;6.93;;;9.10;99.90;;;;;;5049390;28;21028;-73
2022/01/04 02:24:06;;;;;;;12.00;7.20;;;9.10;99.90;;;;;;5067094;28;20613;-73
2022/01/04 02:26:32;;;;;;;12.60;8.07;;;9.10;99.90;;;;;;5041612;28;20629;-73
2022/01/04 02:28:59;;;;;;;14.43;6.90;;;9.10;99.90;;;;;;5016481;28;20662;-73
2022/01/04 02:31:27;;;;;;;12.10;7.43;;;9.10;99.90;;;;;;5030648;28;20705;-73
2022/01/04 02:33:55;;;;;;;10.10;7.00;;;9.10;99.90;;;;;;5031012;28;20676;-73
2022/01/04 02:36:20;;;;;;;10.60;7.13;;;9.20;99.90;;;;;;5048392;28;20642;-72
2022/01/04 02:38:46;;;;;;;13.17;7.90;;;9.10;99.90;;;;;;5030439;28;21342;-73
2022/01/04 02:41:14;;;;;;;16.50;7.50;;;9.10;99.90;;;;;;5062663;28;20607;-73
2022/01/04 02:43:42;;;;;;;13.70;8.90;;;9.10;99.90;;;;;;5047563;28;20231;-73
2022/01/04 02:46:07;;;;;;;12.70;8.57;;;9.10;99.90;;;;;;5037550;28;20610;-73
2022/01/04 02:48:41;;;;;;;11.60;7.90;;;9.10;99.90;;;;;;5024383;28;20681;-73
2022/01/04 02:51:08;;;;;;;13.30;8.43;;;9.10;99.90;;;;;;5049408;28;20699;-73
2022/01/04 02:53:39;;;;;;;13.00;7.87;;;9.10;99.90;;;;;;5048972;28;21212;-73
2022/01/04 02:56:08;;;;;;;13.50;8.33;;;9.10;99.90;;;;;;5039080;28;20638;-73
2022/01/04 02:58:33;;;;;;;12.13;7.90;;;9.10;99.90;;;;;;5047606;28;20840;-73
2022/01/04 03:00:59;;;;;;;11.57;8.70;;;9.10;99.90;;;;;;5048340;28;20726;-73
2022/01/04 03:03:27;;;;;;;17.70;9.33;;;9.10;99.90;;;;;;5063333;28;20190;-73
2022/01/04 03:05:55;;;;;;;13.87;9.20;;;9.10;99.90;;;;;;5028693;28;20663;-73
2022/01/04 03:08:21;;;;;;;12.17;8.93;;;9.10;99.90;;;;;;5030265;28;20747;-73
2022/01/04 03:10:46;;;;;;;14.30;8.70;;;9.20;99.90;;;;;;5031541;28;21134;-73
2022/01/04 03:13:13;;;;;;;11.67;8.97;;;9.20;99.90;;;;;;5048731;28;20203;-73
2022/01/04 03:15:39;;;;;;;13.50;8.73;;;9.20;99.90;;;;;;5040598;28;20547;-73
2022/01/04 03:18:07;;;;;;;13.27;9.57;;;9.20;99.90;;;;;;5046230;28;20642;-73
2022/01/04 03:20:32;;;;;;;15.60;8.70;;;9.20;99.90;;;;;;5061718;28;20239;-73
2022/01/04 03:22:58;;;;;;;13.40;8.03;;;9.20;99.90;;;;;;5049535;28;20696;-73
2022/01/04 03:25:24;;;;;;;12.70;8.27;;;9.30;99.90;;;;;;5063895;28;20192;-74
2022/01/04 03:27:49;;;;;;;16.00;9.33;;;9.30;99.90;;;;;;5044864;28;20292;-73
2022/01/04 03:30:17;;;;;;;16.20;10.10;;;9.40;99.90;;;;;;5047063;28;20790;-73
2022/01/04 03:32:43;;;;;;;15.13;9.20;;;9.20;99.90;;;;;;5048370;28;20237;-73
2022/01/04 03:35:09;;;;;;;14.20;9.03;;;9.20;99.90;;;;;;5019433;28;20631;-73
2022/01/04 03:37:40;;;;;;;14.37;9.17;;;9.20;99.90;;;;;;5062035;28;20679;-72
2022/01/04 03:40:09;;;;;;;16.47;10.53;;;9.20;99.90;;;;;;5045955;28;20726;-73
2022/01/04 03:42:34;;;;;;;15.30;9.53;;;9.10;99.90;;;;;;5062552;28;20614;-73
2022/01/04 03:45:03;;;;;;;15.33;9.90;;;9.20;99.90;;;;;;5046800;28;20614;-73
2022/01/04 03:47:28;;;;;;;12.50;9.10;;;9.10;99.90;;;;;;5047347;28;20749;-73
2022/01/04 03:49:54;;;;;;;13.43;9.80;;;9.10;99.90;;;;;;5046062;28;20619;-73
2022/01/04 03:52:22;;;;;;;16.87;10.10;;;9.10;99.90;;;;;;5046759;28;20242;-73
2022/01/04 03:54:50;;;;;;;13.40;9.77;;;9.20;99.90;;;;;;5023049;28;20192;-73
2022/01/04 03:57:18;;;;;;;15.80;9.80;;;9.00;99.90;;;;;;5028333;28;20670;-73
2022/01/04 03:59:46;;;;;;;16.30;9.97;;;9.10;99.90;;;;;;5028516;28;20629;-73
2022/01/04 04:02:14;;;;;;;20.47;10.90;;;9.10;99.90;;;;;;5046274;28;21153;-73
2022/01/04 04:04:39;;;;;;;22.93;10.47;;;9.00;99.90;;;;;;5047182;28;21083;-73
2022/01/04 04:07:09;;;;;;;18.77;10.53;;;9.00;99.90;;;;;;5048509;28;20825;-74
2022/01/04 04:09:36;;;;;;;14.83;9.67;;;9.10;99.90;;;;;;5046505;28;20330;-73
2022/01/04 04:12:03;;;;;;;18.10;11.30;;;9.00;99.90;;;;;;5047223;28;20663;-73
2022/01/04 04:14:29;;;;;;;14.23;9.90;;;9.00;99.90;;;;;;5053665;28;20629;-73
2022/01/04 04:16:55;;;;;;;16.93;10.63;;;9.10;99.90;;;;;;5028337;28;20651;-73
2022/01/04 04:19:20;;;;;;;15.90;11.20;;;9.10;99.90;;;;;;5028305;28;20220;-73
2022/01/04 04:21:46;;;;;;;17.77;10.10;;;9.10;99.90;;;;;;5030740;28;20355;-73
2022/01/04 04:24:14;;;;;;;16.23;11.10;;;9.10;99.90;;;;;;5045082;28;20205;-73
2022/01/04 04:26:40;;;;;;;18.77;10.47;;;9.10;99.90;;;;;;5046721;28;20227;-73
2022/01/04 04:29:06;;;;;;;16.27;11.17;;;9.10;99.90;;;;;;5045520;28;20647;-73
2022/01/04 04:31:32;;;;;;;15.70;10.07;;;9.10;99.90;;;;;;5029250;28;20188;-73
2022/01/04 04:34:00;;;;;;;17.27;11.07;;;9.10;99.90;;;;;;5012884;28;20184;-73
2022/01/04 04:36:27;;;;;;;20.53;11.10;;;9.10;99.90;;;;;;5046144;28;21216;-73
2022/01/04 04:38:59;;;;;;;14.40;10.60;;;9.10;99.90;;;;;;5045646;28;21079;-73
2022/01/04 04:41:25;;;;;;;17.47;11.13;;;9.10;99.90;;;;;;5062217;28;20681;-73
2022/01/04 04:43:58;;;;;;;17.03;9.33;;;9.10;99.90;;;;;;5045927;28;20607;-72
2022/01/04 04:46:24;;;;;;;18.53;10.87;;;9.10;99.90;;;;;;5046580;28;20183;-73
2022/01/04 04:48:51;;;;;;;15.77;10.33;;;9.10;99.90;;;;;;5057419;28;20787;-73
2022/01/04 04:51:19;;;;;;;17.77;10.77;;;9.10;99.90;;;;;;5044102;28;20271;-73
2022/01/04 04:53:47;;;;;;;18.80;10.97;;;9.10;99.90;;;;;;5015617;28;20693;-73
2022/01/04 04:56:13;;;;;;;15.97;11.63;;;9.00;99.90;;;;;;5038413;28;20714;-72
2022/01/04 04:58:38;;;;;;;20.97;11.57;;;9.00;99.90;;;;;;5044431;28;20713;-72
2022/01/04 05:01:04;;;;;;;17.53;10.37;;;9.10;99.90;;;;;;5046709;28;20188;-73
2022/01/04 05:03:29;;;;;;;18.00;11.10;;;9.00;99.90;;;;;;5043606;28;20255;-73
2022/01/04 05:05:55;;;;;;;20.33;11.70;;;9.00;99.90;;;;;;5028106;28;20250;-72
2022/01/04 05:08:20;;;;;;;18.27;11.57;;;9.00;99.90;;;;;;5026514;28;21157;-73
2022/01/04 05:11:03;;;;;;;19.07;10.70;;;9.10;99.90;;;;;;5031696;28;20266;-73
2022/01/04 05:13:31;;;;;;;15.17;11.03;;;9.10;99.90;;;;;;5042889;28;21664;-72
2022/01/04 05:15:57;;;;;;;17.07;10.63;;;9.00;99.90;;;;;;5021503;28;20642;-73
2022/01/04 05:18:22;;;;;;;17.20;10.90;;;9.00;99.90;;;;;;5026262;28;20716;-73
2022/01/04 05:20:48;;;;;;;18.63;11.90;;;9.00;99.90;;;;;;5027113;28;20176;-73
2022/01/04 05:23:14;;;;;;;16.67;11.20;;;9.00;99.90;;;;;;5048165;28;20271;-72
2022/01/04 05:25:39;;;;;;;15.97;11.30;;;9.00;99.90;;;;;;5047475;28;20176;-73
2022/01/04 05:28:05;;;;;;;14.57;10.77;;;9.10;99.90;;;;;;5053532;28;20917;-72
2022/01/04 05:30:31;;;;;;;21.17;11.40;;;9.10;99.90;;;;;;5042533;28;20242;-72
2022/01/04 05:32:56;;;;;;;18.67;10.93;;;9.10;99.90;;;;;;5029332;28;20682;-72
2022/01/04 05:35:22;;;;;;;20.30;11.07;;;9.10;99.90;;;;;;5046344;28;20195;-72
2022/01/04 05:37:47;;;;;;;19.00;12.50;;;9.10;99.90;;;;;;5044248;28;20207;-74
2022/01/04 05:40:13;;;;;;;19.60;12.00;;;9.10;99.90;;;;;;5032805;28;20584;-72
2022/01/04 05:42:39;;;;;;;22.20;12.10;;;9.10;99.90;;;;;;5039863;28;20295;-73
2022/01/04 05:45:05;;;;;;;16.10;11.63;;;9.00;99.90;;;;;;5045688;28;20180;-73
2022/01/04 05:47:31;;;;;;;20.03;11.80;;;9.00;99.90;;;;;;5016567;28;20211;-73
2022/01/04 05:49:57;;;;;;;17.37;11.30;;;9.00;99.90;;;;;;5043918;28;20633;-73
2022/01/04 05:52:27;;;;;;;20.43;11.80;;;9.00;99.90;;;;;;5058520;28;20188;-73
2022/01/04 05:54:52;;;;;;;22.73;13.00;;;9.00;99.90;;;;;;5035501;28;20615;-72
2022/01/04 05:57:18;;;;;;;20.63;12.73;;;9.00;99.90;;;;;;5046596;28;20666;-72
2022/01/04 05:59:44;;;;;;;19.77;13.73;;;9.10;99.90;;;;;;5059043;28;20220;-72
2022/01/04 06:02:10;;;;;;;21.17;12.13;;;9.10;99.90;;;;;;5038657;28;20706;-72
2022/01/04 06:04:36;;;;;;;18.87;13.37;;;9.10;99.90;;;;;;5020224;28;20729;-73
2022/01/04 06:07:04;;;;;;;21.60;13.37;;;9.10;99.90;;;;;;5025797;28;20320;-72
2022/01/04 06:09:39;;;;;;;18.60;12.80;;;9.10;99.90;;;;;;5022673;28;20293;-73
2022/01/04 06:14:50;;;;;;;21.47;13.33;;;9.10;99.90;;;;;;5031024;28;20678;-72
2022/01/04 06:14:52;;;;;;;21.73;14.60;;;9.00;99.90;;;;;;5050597;28;20601;-72
2022/01/04 06:17:19;;;;;;;19.13;12.57;;;9.00;99.90;;;;;;5023694;28;21058;-72
2022/01/04 06:19:46;;;;;;;18.17;12.03;;;9.10;99.90;;;;;;5033408;28;20641;-72
2022/01/04 06:22:12;;;;;;;22.70;12.83;;;9.10;99.90;;;;;;5043843;28;20698;-72
2022/01/04 06:24:37;;;;;;;19.57;15.40;;;9.10;99.90;;;;;;5042064;28;20675;-72
2022/01/04 06:27:10;;;;;;;20.40;13.30;;;9.10;99.90;;;;;;5030307;28;20664;-73
2022/01/04 06:29:39;;;;;;;19.90;13.70;;;9.10;99.90;;;;;;5041417;28;20244;-72
2022/01/04 06:32:06;;;;;;;20.23;13.20;;;9.10;99.90;;;;;;5049456;28;20614;-72
2022/01/04 06:34:32;;;;;;;19.57;13.23;;;9.10;99.90;;;;;;5043500;28;20679;-72
2022/01/04 06:36:59;;;;;;;22.63;13.60;;;9.10;99.90;;;;;;5025827;28;20664;-72
2022/01/04 06:39:24;;;;;;;27.43;14.37;;;9.10;99.90;;;;;;5022732;28;20729;-72
2022/01/04 06:41:50;;;;;;;23.80;13.87;;;9.10;99.90;;;;;;5032165;28;20841;-72
2022/01/04 06:44:16;;;;;;;23.00;14.20;;;9.10;99.90;;;;;;5038712;28;20307;-72
2022/01/04 06:46:45;;;;;;;25.70;14.03;;;9.10;99.90;;;;;;5036164;28;20298;-72
2022/01/04 06:49:12;;;;;;;21.00;12.97;;;9.10;99.90;;;;;;5025805;28;20223;-73
2022/01/04 06:51:38;;;;;;;21.47;13.17;;;9.10;99.90;;;;;;5027310;28;20638;-72
2022/01/04 06:54:04;;;;;;;29.20;16.03;;;9.20;99.90;;;;;;5033104;28;20625;-72
2022/01/04 06:56:30;;;;;;;24.80;13.60;;;9.10;99.90;;;;;;5010981;28;20650;-72
2022/01/04 06:58:56;;;;;;;22.77;13.60;;;9.20;99.90;;;;;;5031068;28;20217;-72
2022/01/04 07:01:22;;;;;;;27.17;14.80;;;9.20;99.90;;;;;;5013165;28;20916;-72
2022/01/04 07:03:47;;;;;;;27.10;14.60;;;9.10;99.90;;;;;;5012247;28;20195;-72
2022/01/04 07:06:13;;;;;;;25.70;15.00;;;9.20;99.90;;;;;;5017522;28;20676;-72
2022/01/04 07:08:39;;;;;;;25.00;14.47;;;9.10;99.90;;;;;;4982675;28;20222;-72
2022/01/04 07:11:05;;;;;;;23.53;13.73;;;9.10;99.90;;;;;;5015270;28;20188;-72
2022/01/04 07:13:33;;;;;;;25.30;16.23;;;9.10;99.90;;;;;;5022138;28;20197;-72
2022/01/04 07:16:01;;;;;;;25.10;14.70;;;9.00;99.90;;;;;;5036861;28;21765;-72
2022/01/04 07:18:26;;;;;;;23.13;14.50;;;9.00;99.90;;;;;;5012954;28;21544;-71
2022/01/04 07:20:52;;;;;;;22.80;14.93;;;8.90;99.90;;;;;;5037813;28;20694;-71
2022/01/04 07:23:18;;;;;;;22.43;14.47;;;9.00;99.90;;;;;;5027338;28;20184;-72
2022/01/04 07:25:43;;;;;;;23.77;14.07;;;9.00;99.90;;;;;;5041124;28;21837;-72
2022/01/04 07:28:09;;;;;;;29.73;15.57;;;8.90;99.90;;;;;;5016408;28;20245;-71
2022/01/04 07:30:37;;;;;;;25.10;15.53;;;8.90;99.90;;;;;;5022572;28;20231;-72
2022/01/04 07:33:03;;;;;;;24.90;14.80;;;8.90;99.90;;;;;;5023349;28;20195;-71
2022/01/04 07:35:30;;;;;;;23.80;14.90;;;9.00;99.90;;;;;;5031297;28;20763;-71
2022/01/04 07:37:56;;;;;;;21.60;13.97;;;9.00;99.90;;;;;;5038114;28;20210;-71
2022/01/04 07:40:22;;;;;;;25.53;14.27;;;8.90;99.90;;;;;;5038398;28;20634;-72
2022/01/04 07:42:48;;;;;;;23.33;14.97;;;9.00;99.90;;;;;;5042154;28;20192;-72
2022/01/04 07:45:14;;;;;;;23.30;13.93;;;9.00;99.90;;;;;;5030805;28;20318;-72
2022/01/04 07:47:43;;;;;;;23.87;13.93;;;9.00;99.90;;;;;;5039496;28;20882;-72
2022/01/04 07:50:10;;;;;;;22.50;14.53;;;9.00;99.90;;;;;;5024192;28;21250;-71
2022/01/04 07:52:35;;;;;;;21.43;14.57;;;9.00;99.90;;;;;;5028430;28;20982;-71
2022/01/04 07:55:01;;;;;;;24.30;14.20;;;8.90;99.90;;;;;;5048764;28;20694;-71
2022/01/04 07:57:27;;;;;;;24.43;14.17;;;8.90;99.90;;;;;;5019299;28;20570;-71
2022/01/04 07:59:52;;;;;;;24.43;14.63;;;8.90;99.90;;;;;;5038987;28;20642;-72
2022/01/04 08:02:18;;;;;;;28.10;16.33;;;9.00;99.90;;;;;;5045823;28;20200;-73
2022/01/04 08:04:43;;;;;;;31.93;15.20;;;8.90;99.90;;;;;;5046044;28;20200;-73
2022/01/04 08:07:09;;;;;;;25.43;14.80;;;9.00;99.90;;;;;;5024714;28;20364;-73
2022/01/04 08:09:35;;;;;;;22.87;14.80;;;8.90;99.90;;;;;;5044918;28;20303;-73
2022/01/04 08:12:03;;;;;;;20.03;13.63;;;8.90;99.90;;;;;;5047431;28;20192;-73
2022/01/04 08:14:29;;;;;;;26.07;14.70;;;8.90;99.90;;;;;;5043519;28;20210;-72
2022/01/04 08:16:55;;;;;;;28.07;16.17;;;8.90;99.90;;;;;;5038907;28;20880;-73
2022/01/04 08:19:20;;;;;;;27.00;14.10;;;8.90;99.90;;;;;;5038134;28;20648;-72
2022/01/04 08:21:46;;;;;;;23.10;14.27;;;9.00;99.90;;;;;;5039916;28;20310;-73
2022/01/04 08:24:12;;;;;;;27.33;14.80;;;9.00;99.90;;;;;;5038978;28;20570;-73
2022/01/04 08:26:37;;;;;;;26.93;14.63;;;9.00;99.90;;;;;;5021727;28;20200;-72
2022/01/04 08:29:03;;;;;;;21.73;14.00;;;9.00;99.90;;;;;;5018339;28;20227;-73
2022/01/04 08:31:28;;;;;;;25.50;14.23;;;9.00;99.90;;;;;;5042246;28;20255;-73
2022/01/04 08:33:54;;;;;;;27.27;13.57;;;9.00;99.90;;;;;;5019626;28;20890;-72
2022/01/04 08:36:22;;;;;;;21.60;13.97;;;8.90;99.90;;;;;;5040823;28;20688;-72
2022/01/04 08:38:47;;;;;;;22.70;13.50;;;8.90;99.90;;;;;;5036215;28;20350;-72
2022/01/04 08:41:13;;;;;;;21.80;14.03;;;8.90;99.90;;;;;;5037455;28;20615;-72
2022/01/04 08:43:39;;;;;;;24.50;14.20;;;8.80;99.90;;;;;;5041908;28;20208;-72
2022/01/04 08:46:05;;;;;;;23.73;14.40;;;9.00;99.90;;;;;;5017431;28;20224;-72
2022/01/04 08:48:30;;;;;;;26.00;15.10;;;8.90;99.90;;;;;;5039215;28;20267;-72
2022/01/04 08:50:56;;;;;;;20.73;13.67;;;9.00;99.90;;;;;;5030275;28;20184;-72
2022/01/04 08:53:21;;;;;;;22.30;13.67;;;9.00;99.90;;;;;;5025041;28;20195;-72
2022/01/04 08:55:47;;;;;;;23.17;14.10;;;8.90;99.90;;;;;;5024963;28;20233;-72
2022/01/04 08:58:13;;;;;;;24.43;14.27;;;8.90;99.90;;;;;;5052684;28;20948;-72
2022/01/04 09:00:39;;;;;;;25.47;13.60;;;8.90;99.90;;;;;;5050930;28;20246;-73
2022/01/04 09:03:06;;;;;;;27.20;15.00;;;8.90;99.90;;;;;;5049616;28;20652;-72
2022/01/04 09:05:31;;;;;;;24.30;14.77;;;9.00;99.90;;;;;;5024569;28;20595;-72
2022/01/04 09:07:57;;;;;;;21.03;13.43;;;9.00;99.90;;;;;;5041075;28;20720;-72
2022/01/04 09:10:25;;;;;;;24.50;14.73;;;9.00;99.90;;;;;;5040144;28;20255;-72
2022/01/04 09:13:00;;;;;;;20.80;13.53;;;9.00;99.90;;;;;;5039469;28;20190;-72
2022/01/04 09:20:50;;;;;;;23.80;14.67;;;8.90;99.90;;;;;;5039574;28;20669;-72
2022/01/04 09:23:18;;;;;;;23.20;14.00;;;8.90;99.90;;;;;;5040157;28;20654;-72
2022/01/04 09:25:46;;;;;;;20.97;14.23;;;9.00;99.90;;;;;;5038716;28;20647;-72
2022/01/04 09:28:12;;;;;;;23.90;14.87;;;9.00;99.90;;;;;;5041137;28;20666;-72
2022/01/04 09:30:39;;;;;;;25.50;15.23;;;9.00;99.90;;;;;;5039652;28;20615;-72
2022/01/04 09:33:05;;;;;;;24.17;13.70;;;9.00;99.90;;;;;;5025214;28;20196;-72
2022/01/04 09:35:32;;;;;;;23.40;15.80;;;9.00;99.90;;;;;;5043447;28;20641;-73
2022/01/04 09:37:58;;;;;;;21.40;13.67;;;9.00;99.90;;;;;;5037012;28;20684;-72
2022/01/04 09:40:24;;;;;;;20.93;14.30;;;9.10;99.90;;;;;;5017375;28;21217;-73
2022/01/04 09:42:50;;;;;;;25.40;14.63;;;9.10;99.90;;;;;;5041341;28;20214;-72
2022/01/04 09:45:16;;;;;;;23.43;13.73;;;9.10;99.90;;;;;;5040231;28;20622;-72
2022/01/04 09:47:42;;;;;;;23.10;13.87;;;9.20;99.90;;;;;;5037407;28;20646;-73
2022/01/04 09:50:10;;;;;;;22.03;13.87;;;9.20;99.90;;;;;;5035640;28;20355;-72
2022/01/04 09:52:42;;;;;;;23.77;13.63;;;9.20;99.90;;;;;;5038615;28;21845;-72
2022/01/04 09:55:11;;;;;;;19.13;13.87;;;9.20;99.90;;;;;;5044121;28;20633;-71
2022/01/04 09:57:39;;;;;;;20.77;13.97;;;9.30;99.90;;;;;;5017749;28;20658;-71
2022/01/04 10:00:06;;;;;;;19.70;13.67;;;9.30;99.90;;;;;;5037699;28;20637;-71
2022/01/04 10:02:32;;;;;;;24.07;13.13;;;9.30;99.90;;;;;;5036011;28;20712;-72
2022/01/04 10:05:38;;;;;;;20.77;13.63;;;9.30;99.90;;;;;;5020787;28;20611;-71
2022/01/04 10:08:08;;;;;;;21.70;13.80;;;9.30;99.90;;;;;;4977212;28;21095;-73
2022/01/04 10:10:36;;;;;;;21.60;14.90;;;9.40;99.90;;;;;;4991893;28;20665;-72
2022/01/04 10:13:11;;;;;;;20.77;13.00;;;9.40;99.90;;;;;;4978234;28;21179;-71
2022/01/04 10:15:42;;;;;;;24.10;13.57;;;9.40;99.90;;;;;;4980399;28;20628;-71
2022/01/04 10:18:13;;;;;;;22.50;14.60;;;9.30;99.90;;;;;;4981857;28;21260;-70
2022/01/04 10:20:59;;;;;;;24.73;14.40;;;9.40;99.90;;;;;;4982940;28;20626;-71
2022/01/04 10:23:25;;;;;;;19.53;12.87;;;9.30;99.90;;;;;;4980133;28;20643;-71
2022/01/04 10:26:03;;;;;;;20.50;13.23;;;9.40;99.90;;;;;;4993082;28;20629;-72
2022/01/04 10:28:32;;;;;;;18.43;12.20;;;9.30;99.90;;;;;;4987801;28;20688;-73
2022/01/04 10:31:04;;;;;;;19.87;13.70;;;9.40;99.90;;;;;;4964463;28;21022;-71
2022/01/04 10:33:33;;;;;;;24.07;14.13;;;9.40;99.90;;;;;;4989441;28;20718;-72
2022/01/04 10:36:00;;;;;;;19.67;13.60;;;9.50;99.90;;;;;;5004807;28;21082;-71
2022/01/04 10:38:30;;;;;;;17.83;12.87;;;9.40;99.90;;;;;;4970690;28;20690;-72
2022/01/04 10:41:22;;;;;;;18.40;12.97;;;9.40;99.90;;;;;;4957653;28;20774;-71
2022/01/04 10:44:03;;;;;;;23.87;13.50;;;9.30;99.90;;;;;;4973177;28;20597;-72
2022/01/04 10:46:44;;;;;;;20.10;12.43;;;9.30;99.90;;;;;;5024384;28;20994;-71
2022/01/04 10:49:32;;;;;;;21.10;12.93;;;9.30;99.90;;;;;;5016784;28;20772;-71
2022/01/04 10:52:08;;;;;;;21.57;13.20;;;9.30;99.90;;;;;;5038691;28;21588;-72
2022/01/04 10:54:34;;;;;;;16.10;11.20;;;9.40;99.90;;;;;;5021417;28;20645;-71
2022/01/04 10:57:34;;;;;;;16.53;11.13;;;9.40;99.90;;;;;;5036345;28;21252;-72
2022/01/04 11:00:16;;;;;;;14.30;9.40;;;9.30;99.90;;;;;;5033960;28;20619;-72
2022/01/04 11:02:42;;;;;;;14.00;7.90;;;9.20;99.90;;;;;;5022257;28;20630;-71
2022/01/04 11:05:15;;;;;;;11.17;7.50;;;9.20;99.90;;;;;;5034109;28;20621;-71
2022/01/04 11:07:57;;;;;;;18.43;12.50;;;9.20;99.90;;;;;;5018526;28;20227;-72
2022/01/04 11:10:28;;;;;;;15.07;10.20;;;9.20;99.90;;;;;;5049326;28;20638;-71
2022/01/04 11:13:05;;;;;;;12.50;7.60;;;9.20;99.90;;;;;;5016619;28;20634;-71
2022/01/04 11:15:31;;;;;;;13.10;8.03;;;9.20;99.90;;;;;;5035815;28;20629;-72
2022/01/04 11:17:57;;;;;;;11.67;8.50;;;9.20;99.90;;;;;;5043076;28;20647;-71
2022/01/04 11:20:23;;;;;;;11.40;7.63;;;9.30;99.90;;;;;;5041195;28;20665;-72
2022/01/04 11:22:50;;;;;;;11.70;8.27;;;9.20;99.90;;;;;;5043209;28;20697;-72
2022/01/04 11:25:21;;;;;;;13.70;8.20;;;9.30;99.90;;;;;;5023441;28;20622;-71
2022/01/04 11:27:48;;;;;;;11.40;8.43;;;9.30;99.90;;;;;;5044178;28;20649;-72
2022/01/04 11:30:27;;;;;;;11.47;7.53;;;9.20;99.90;;;;;;5043423;28;20635;-72
2022/01/04 11:32:59;;;;;;;13.57;7.77;;;9.20;99.90;;;;;;5055693;28;20618;-71
2022/01/04 11:35:26;;;;;;;10.93;8.40;;;9.20;99.90;;;;;;5042333;28;20707;-72
2022/01/04 11:37:57;;;;;;;10.23;7.43;;;9.20;99.90;;;;;;5052868;28;20727;-72
2022/01/04 11:40:35;;;;;;;14.20;8.10;;;9.10;99.90;;;;;;5041039;28;20642;-73
2022/01/04 11:43:03;;;;;;;12.70;8.40;;;9.10;99.90;;;;;;5022126;28;20680;-74
2022/01/04 11:45:47;;;;;;;11.00;7.57;;;9.10;99.90;;;;;;5025100;28;20623;-73
2022/01/04 11:48:38;;;;;;;6.10;4.80;;;9.30;99.90;;;;;;5040182;28;20698;-73
2022/01/04 11:51:06;;;;;;;7.00;5.33;;;9.10;99.90;;;;;;5043991;28;20594;-73
2022/01/04 11:53:33;;;;;;;4.80;4.27;;;9.10;99.90;;;;;;5040095;28;20662;-73
2022/01/04 11:56:04;;;;;;;4.60;4.10;;;9.10;99.90;;;;;;5049736;28;20651;-73
2022/01/04 11:58:54;;;;;;;3.83;2.87;;;9.10;99.90;;;;;;5022871;28;21046;-74
2022/01/04 12:01:27;;;;;;;5.10;3.17;;;9.10;99.90;;;;;;5045133;28;21156;-74
2022/01/04 12:03:53;;;;;;;4.00;3.40;;;9.00;99.90;;;;;;5041729;28;21108;-74
2022/01/04 12:06:21;;;;;;;3.60;2.43;;;9.00;99.90;;;;;;5042475;28;20723;-74
2022/01/04 12:08:48;;;;;;;7.00;2.50;;;9.00;99.90;;;;;;5023739;28;20618;-73
2022/01/04 12:11:26;;;;;;;4.67;2.63;;;9.00;99.90;;;;;;5042699;28;20657;-73
2022/01/04 12:13:59;;;;;;;4.37;2.90;;;9.00;99.90;;;;;;5035792;28;20633;-73
2022/01/04 12:16:33;;;;;;;4.97;2.67;;;9.00;99.90;;;;;;5051192;28;20685;-73
2022/01/04 12:19:01;;;;;;;5.00;2.93;;;8.90;99.90;;;;;;5022156;28;20776;-72
2022/01/04 12:21:34;;;;;;;3.27;2.20;;;8.90;99.90;;;;;;5035299;28;20628;-72
2022/01/04 12:24:01;;;;;;;3.43;2.70;;;9.00;99.90;;;;;;5040289;28;20596;-73
2022/01/04 12:26:32;;;;;;;8.17;3.10;;;9.00;99.90;;;;;;5039054;28;20636;-72
2022/01/04 12:28:58;;;;;;;4.87;2.90;;;8.90;99.90;;;;;;5038709;28;21063;-71
2022/01/04 12:31:25;;;;;;;3.97;2.50;;;8.90;99.90;;;;;;5022178;28;20804;-71
2022/01/04 12:34:05;;;;;;;2.33;2.00;;;8.80;99.90;;;;;;5038790;28;20615;-70
2022/01/04 12:36:39;;;;;;;1.80;1.50;;;8.70;99.90;;;;;;5042986;28;20623;-71
2022/01/04 12:39:09;;;;;;;2.17;1.70;;;8.60;99.90;;;;;;5017181;28;21285;-71
2022/01/04 12:41:36;;;;;;;2.30;1.93;;;8.60;99.90;;;;;;5033291;28;20643;-72
2022/01/04 12:44:04;;;;;;;4.73;1.70;;;8.60;99.90;;;;;;5033056;28;20623;-73
2022/01/04 12:46:36;;;;;;;2.17;1.10;;;8.50;99.90;;;;;;5035340;28;20681;-72
2022/01/04 12:49:11;;;;;;;1.33;1.23;;;8.50;99.90;;;;;;5022756;28;21257;-72
2022/01/04 12:51:44;;;;;;;2.70;1.30;;;8.50;99.90;;;;;;5019682;28;20686;-72
2022/01/04 12:54:21;;;;;;;0.80;0.80;;;8.50;99.90;;;;;;5040096;28;20709;-73
2022/01/04 12:57:01;;;;;;;0.80;0.80;;;8.40;99.90;;;;;;5040699;28;20653;-71
2022/01/04 12:59:26;;;;;;;0.87;0.70;;;8.40;99.90;;;;;;5031178;28;21347;-72
2022/01/04 13:01:58;;;;;;;1.43;0.83;;;8.40;99.90;;;;;;5010898;28;20631;-71